createdAt,value
2018-12-06T00:00:50.393Z,14.40
2018-12-06T00:03:19.036Z,14.93
2018-12-06T00:05:47.381Z,14.93
2018-12-06T00:08:17.861Z,15.77
2018-12-06T00:10:46.423Z,16.83
2018-12-06T00:13:14.779Z,16.43
2018-12-06T00:15:43.307Z,15.90
2018-12-06T00:18:11.790Z,15.50
2018-12-06T00:20:40.324Z,18.07
2018-12-06T00:23:08.835Z,16.50
2018-12-06T00:25:37.596Z,14.30
2018-12-06T00:28:06.085Z,14.10
2018-12-06T00:30:37.588Z,14.60
2018-12-06T00:33:06.046Z,14.30
2018-12-06T00:35:34.499Z,14.97
2018-12-06T00:38:02.988Z,15.67
2018-12-06T00:40:31.629Z,14.70
2018-12-06T00:43:00.140Z,14.37
2018-12-06T00:45:28.628Z,14.70
2018-12-06T00:47:57.180Z,15.43
2018-12-06T00:50:25.644Z,15.20
2018-12-06T00:52:54.325Z,14.30
2018-12-06T00:55:22.984Z,17.37
2018-12-06T00:57:51.474Z,18.23
2018-12-06T01:00:20.126Z,16.00
2018-12-06T01:02:48.632Z,15.63
2018-12-06T01:05:17.188Z,15.47
2018-12-06T01:07:45.832Z,15.10
2018-12-06T01:10:14.502Z,12.20
2018-12-06T01:12:42.895Z,13.67
2018-12-06T01:15:11.530Z,14.57
2018-12-06T01:17:40.035Z,14.50
2018-12-06T01:20:08.547Z,15.10
2018-12-06T01:22:37.027Z,15.17
2018-12-06T01:25:06.337Z,16.80
2018-12-06T01:27:34.976Z,16.83
2018-12-06T01:30:03.621Z,15.10
2018-12-06T01:32:32.184Z,15.10
2018-12-06T01:35:00.730Z,13.73
2018-12-06T01:37:29.208Z,15.00
2018-12-06T01:39:57.653Z,15.80
2018-12-06T01:42:26.370Z,15.50
2018-12-06T01:44:54.800Z,16.00
2018-12-06T01:47:23.432Z,15.03
2018-12-06T01:49:51.884Z,15.37
2018-12-06T01:52:20.556Z,15.13
2018-12-06T01:54:49.151Z,14.33
2018-12-06T01:57:17.973Z,13.97
2018-12-06T01:59:46.563Z,11.13
2018-12-06T02:02:15.154Z,11.30
2018-12-06T02:04:43.644Z,9.90
2018-12-06T02:07:12.321Z,8.97
2018-12-06T02:09:40.857Z,9.50
2018-12-06T02:12:09.439Z,10.10
2018-12-06T02:14:39.058Z,11.53
2018-12-06T02:17:07.772Z,10.60
2018-12-06T02:19:36.257Z,12.30
2018-12-06T02:22:04.737Z,13.23
2018-12-06T02:24:33.227Z,14.50
2018-12-06T02:27:01.703Z,13.90
2018-12-06T02:29:35.675Z,13.60
2018-12-06T02:32:04.366Z,13.00
2018-12-06T02:34:34.058Z,15.40
2018-12-06T02:37:02.500Z,14.67
2018-12-06T02:39:31.053Z,15.90
2018-12-06T02:41:59.569Z,13.97
2018-12-06T02:44:29.545Z,14.77
2018-12-06T02:46:57.961Z,16.10
2018-12-06T02:49:26.394Z,16.93
2018-12-06T02:51:55.088Z,14.23
2018-12-06T02:54:24.985Z,12.70
2018-12-06T02:56:53.589Z,15.47
2018-12-06T02:59:22.102Z,16.40
2018-12-06T03:01:50.595Z,15.50
2018-12-06T03:04:19.148Z,16.67
2018-12-06T03:06:47.667Z,17.43
2018-12-06T03:09:16.201Z,16.67
2018-12-06T03:11:44.741Z,16.70
2018-12-06T03:14:13.203Z,14.23
2018-12-06T03:16:41.820Z,13.80
2018-12-06T03:19:10.337Z,16.13
2018-12-06T03:21:38.924Z,16.10
2018-12-06T03:24:07.544Z,16.03
2018-12-06T03:26:36.323Z,15.60
2018-12-06T03:29:04.874Z,15.30
2018-12-06T03:31:33.559Z,19.37
2018-12-06T03:34:02.046Z,20.67
2018-12-06T03:36:30.661Z,18.60
2018-12-06T03:38:59.240Z,18.33
2018-12-06T03:41:27.689Z,19.07
2018-12-06T03:43:56.259Z,16.97
2018-12-06T03:46:24.659Z,17.17
2018-12-06T03:48:53.375Z,19.10
2018-12-06T03:51:21.858Z,18.10
2018-12-06T03:53:51.900Z,19.93
2018-12-06T03:56:20.394Z,16.53
2018-12-06T03:58:48.856Z,17.93
2018-12-06T04:01:17.333Z,18.70
2018-12-06T04:03:45.769Z,16.73
2018-12-06T04:06:14.543Z,17.43
2018-12-06T04:08:42.973Z,17.70
2018-12-06T04:11:11.505Z,17.17
2018-12-06T04:13:39.848Z,16.90
2018-12-06T04:16:08.299Z,15.60
2018-12-06T04:18:37.055Z,16.70
2018-12-06T04:21:05.394Z,14.00
2018-12-06T04:23:33.856Z,13.90
2018-12-06T04:26:03.160Z,13.33
2018-12-06T04:28:31.569Z,13.23
2018-12-06T04:30:59.906Z,12.43
2018-12-06T04:33:28.371Z,14.43
2018-12-06T04:35:56.804Z,14.10
2018-12-06T04:38:25.115Z,8.00
2018-12-06T04:40:53.463Z,8.63
2018-12-06T04:43:21.964Z,8.07
2018-12-06T04:45:50.301Z,8.27
2018-12-06T04:48:22.125Z,9.27
2018-12-06T04:50:48.960Z,8.00
2018-12-06T04:53:17.400Z,9.37
2018-12-06T04:55:45.735Z,11.20
2018-12-06T04:58:14.084Z,13.03
2018-12-06T05:00:42.409Z,13.97
2018-12-06T05:03:10.824Z,14.13
2018-12-06T05:05:39.173Z,14.17
2018-12-06T05:08:07.520Z,14.57
2018-12-06T05:10:35.863Z,14.40
2018-12-06T05:13:04.212Z,13.47
2018-12-06T05:15:32.532Z,15.33
2018-12-06T05:18:00.893Z,15.60
2018-12-06T05:20:29.225Z,14.37
2018-12-06T05:22:57.624Z,15.00
2018-12-06T05:25:26.184Z,15.20
2018-12-06T05:27:54.526Z,14.20
2018-12-06T05:30:22.853Z,16.37
2018-12-06T05:32:51.194Z,14.70
2018-12-06T05:35:19.551Z,15.27
2018-12-06T05:37:47.908Z,16.97
2018-12-06T05:40:16.245Z,16.60
2018-12-06T05:42:44.743Z,16.30
2018-12-06T05:45:13.088Z,17.60
2018-12-06T05:47:41.532Z,19.63
2018-12-06T05:50:09.948Z,17.30
2018-12-06T05:52:38.308Z,15.67
2018-12-06T05:55:06.638Z,17.10
2018-12-06T05:57:35.013Z,16.50
2018-12-06T06:00:03.920Z,16.23
2018-12-06T06:02:32.299Z,15.00
2018-12-06T06:05:00.756Z,14.17
2018-12-06T06:07:29.127Z,15.53
2018-12-06T06:09:57.451Z,15.60
2018-12-06T06:12:25.814Z,14.30
2018-12-06T06:14:54.265Z,13.20
2018-12-06T06:17:22.632Z,14.00
2018-12-06T06:19:50.969Z,14.10
2018-12-06T06:22:19.418Z,15.53
2018-12-06T06:24:47.751Z,13.77
2018-12-06T06:27:16.083Z,15.87
2018-12-06T06:29:44.444Z,17.77
2018-12-06T06:32:12.785Z,16.40
2018-12-06T06:34:41.147Z,16.57
2018-12-06T06:37:09.897Z,16.53
2018-12-06T06:39:40.830Z,16.40
2018-12-06T06:42:09.153Z,16.77
2018-12-06T06:44:37.519Z,16.50
2018-12-06T06:47:06.052Z,17.90
2018-12-06T06:49:34.462Z,17.87
2018-12-06T06:52:02.781Z,19.00
2018-12-06T06:54:31.162Z,18.67
2018-12-06T06:56:59.584Z,20.17
2018-12-06T06:59:28.105Z,17.93
2018-12-06T07:01:56.437Z,18.77
2018-12-06T07:04:24.758Z,16.30
2018-12-06T07:06:53.173Z,18.90
2018-12-06T07:09:21.562Z,22.50
2018-12-06T07:11:49.901Z,21.80
2018-12-06T07:14:18.328Z,21.40
2018-12-06T07:16:46.665Z,21.70
2018-12-06T07:19:15.038Z,22.03
2018-12-06T07:21:43.366Z,19.93
2018-12-06T07:24:11.724Z,19.47
2018-12-06T07:26:40.169Z,20.20
2018-12-06T07:29:08.636Z,18.23
2018-12-06T07:31:36.988Z,19.73
2018-12-06T07:34:05.394Z,19.27
2018-12-06T07:36:33.726Z,17.83
2018-12-06T07:39:02.112Z,14.13
2018-12-06T07:41:30.436Z,13.27
2018-12-06T07:43:58.808Z,15.87
2018-12-06T07:46:27.151Z,11.13
2018-12-06T07:48:56.805Z,10.97
2018-12-06T07:51:25.155Z,9.80
2018-12-06T07:53:53.607Z,11.73
2018-12-06T07:56:22.020Z,9.37
2018-12-06T07:58:50.457Z,10.00
2018-12-06T08:01:18.871Z,9.80
2018-12-06T08:03:47.296Z,10.40
2018-12-06T08:06:15.677Z,10.57
2018-12-06T08:08:44.004Z,10.40
2018-12-06T08:11:12.375Z,11.70
2018-12-06T08:13:40.729Z,14.33
2018-12-06T08:16:09.177Z,15.60
2018-12-06T08:18:37.736Z,15.87
2018-12-06T08:21:06.112Z,16.63
2018-12-06T08:23:34.492Z,19.10
2018-12-06T08:26:02.891Z,18.37
2018-12-06T08:28:31.223Z,17.90
2018-12-06T08:30:59.669Z,18.60
2018-12-06T08:33:28.000Z,18.80
2018-12-06T08:35:56.405Z,17.70
2018-12-06T08:38:24.744Z,19.00
2018-12-06T08:40:53.177Z,18.17
2018-12-06T08:43:21.586Z,18.87
2018-12-06T08:45:49.909Z,18.40
2018-12-06T08:48:18.379Z,18.03
2018-12-06T08:50:46.728Z,17.70
2018-12-06T08:53:15.074Z,18.70
2018-12-06T08:55:43.479Z,18.30
2018-12-06T08:58:11.820Z,17.93
2018-12-06T09:00:40.172Z,19.40
2018-12-06T09:03:08.550Z,17.67
2018-12-06T09:05:36.923Z,18.70
2018-12-06T09:08:05.400Z,17.17
2018-12-06T09:10:33.859Z,17.10
2018-12-06T09:13:02.589Z,17.73
2018-12-06T09:15:30.911Z,16.57
2018-12-06T09:17:59.317Z,16.67
2018-12-06T09:20:27.669Z,16.00
2018-12-06T09:22:56.004Z,15.80
2018-12-06T09:25:24.648Z,16.20
2018-12-06T09:27:52.978Z,15.30
2018-12-06T09:30:21.414Z,15.43
2018-12-06T09:32:49.868Z,11.20
2018-12-06T09:35:18.218Z,10.37
2018-12-06T09:37:46.595Z,10.20
2018-12-06T09:40:14.933Z,8.23
2018-12-06T09:42:43.288Z,7.10
2018-12-06T09:45:11.716Z,7.50
2018-12-06T09:47:40.096Z,8.90
2018-12-06T09:50:08.417Z,9.37
2018-12-06T09:52:36.832Z,7.70
2018-12-06T09:55:05.512Z,6.07
2018-12-06T09:57:33.861Z,5.60
2018-12-06T10:00:02.248Z,5.20
2018-12-06T10:02:30.704Z,5.30
2018-12-06T10:04:59.159Z,4.80
2018-12-06T10:07:27.514Z,4.07
2018-12-06T10:09:55.881Z,4.13
2018-12-06T10:12:24.223Z,3.93
2018-12-06T10:14:52.605Z,4.30
2018-12-06T10:17:21.027Z,4.57
2018-12-06T10:19:49.397Z,4.50
2018-12-06T10:22:17.781Z,3.67
2018-12-06T10:24:46.254Z,5.40
2018-12-06T10:27:14.688Z,4.87
2018-12-06T10:29:43.078Z,5.63
2018-12-06T10:32:11.469Z,4.47
2018-12-06T10:34:39.820Z,4.60
2018-12-06T10:37:08.150Z,3.20
2018-12-06T10:39:36.512Z,2.60
2018-12-06T10:42:04.941Z,2.83
2018-12-06T10:44:33.279Z,4.50
2018-12-06T10:47:01.690Z,2.60
2018-12-06T10:49:30.036Z,3.40
2018-12-06T10:51:58.425Z,2.73
2018-12-06T10:54:26.784Z,2.67
2018-12-06T10:56:55.106Z,3.00
2018-12-06T10:59:23.495Z,3.00
2018-12-06T11:01:57.164Z,2.90
2018-12-06T11:04:29.791Z,2.50
2018-12-06T11:06:58.213Z,2.87
2018-12-06T11:09:26.584Z,3.43
2018-12-06T11:11:54.960Z,2.60
2018-12-06T11:14:23.317Z,2.27
2018-12-06T11:16:51.704Z,2.47
2018-12-06T11:19:20.039Z,2.90
2018-12-06T11:21:48.523Z,2.93
2018-12-06T11:24:17.118Z,2.47
2018-12-06T11:26:45.505Z,3.77
2018-12-06T11:29:13.985Z,2.90
2018-12-06T11:31:42.376Z,2.97
2018-12-06T11:34:10.731Z,3.00
2018-12-06T11:36:39.113Z,2.97
2018-12-06T11:39:08.700Z,2.90
2018-12-06T11:41:42.965Z,3.73
2018-12-06T11:44:07.393Z,3.40
2018-12-06T11:46:35.855Z,3.63
2018-12-06T11:49:04.234Z,3.40
2018-12-06T11:51:32.768Z,2.63
2018-12-06T11:54:01.112Z,3.03
2018-12-06T11:56:29.424Z,3.37
2018-12-06T11:58:57.846Z,3.30
2018-12-06T12:01:26.195Z,3.13
2018-12-06T12:03:54.685Z,3.27
2018-12-06T12:06:23.116Z,2.73
2018-12-06T12:08:51.491Z,2.50
2018-12-06T12:11:19.828Z,2.23
2018-12-06T12:13:48.208Z,2.33
2018-12-06T12:16:16.599Z,2.23
2018-12-06T12:18:45.115Z,1.93
2018-12-06T12:21:13.474Z,2.10
2018-12-06T12:23:41.902Z,2.00
2018-12-06T12:26:10.256Z,1.97
2018-12-06T12:28:38.640Z,2.23
2018-12-06T12:31:07.512Z,2.03
2018-12-06T12:33:35.863Z,2.90
2018-12-06T12:36:04.217Z,2.67
2018-12-06T12:38:32.685Z,3.30
2018-12-06T12:41:01.346Z,2.00
2018-12-06T12:43:29.713Z,2.40
2018-12-06T12:45:58.092Z,2.80
2018-12-06T12:48:26.425Z,1.97
2018-12-06T12:50:54.787Z,2.27
2018-12-06T12:53:23.169Z,2.07
2018-12-06T12:55:51.579Z,2.40
2018-12-06T12:58:20.120Z,2.13
2018-12-06T13:00:48.458Z,2.00
2018-12-06T13:03:17.256Z,2.20
2018-12-06T13:05:45.712Z,2.33
2018-12-06T13:08:14.230Z,1.70
2018-12-06T13:10:42.576Z,1.97
2018-12-06T13:13:11.064Z,1.70
2018-12-06T13:15:39.412Z,1.87
2018-12-06T13:18:07.771Z,1.70
2018-12-06T13:20:36.147Z,1.87
2018-12-06T13:23:04.669Z,1.70
2018-12-06T13:25:33.017Z,1.80
2018-12-06T13:28:01.384Z,1.80
2018-12-06T13:30:29.717Z,1.60
2018-12-06T13:32:58.383Z,1.50
2018-12-06T13:35:26.708Z,1.40
2018-12-06T13:37:55.050Z,1.90
2018-12-06T13:40:23.447Z,1.67
2018-12-06T13:42:51.759Z,1.40
2018-12-06T13:45:20.128Z,1.07
2018-12-06T13:47:48.532Z,1.90
2018-12-06T13:50:16.869Z,1.87
2018-12-06T13:52:45.196Z,2.27
2018-12-06T13:55:13.676Z,1.73
2018-12-06T13:57:42.023Z,1.30
2018-12-06T14:00:10.553Z,1.80
2018-12-06T14:02:39.037Z,1.77
2018-12-06T14:05:07.497Z,1.57
2018-12-06T14:07:35.986Z,1.50
2018-12-06T14:10:04.572Z,1.00
2018-12-06T14:12:32.908Z,1.60
2018-12-06T14:15:01.403Z,1.60
2018-12-06T14:17:29.776Z,1.60
2018-12-06T14:19:58.203Z,1.97
2018-12-06T14:22:26.613Z,1.57
2018-12-06T14:24:55.587Z,1.77
2018-12-06T14:27:23.941Z,1.73
2018-12-06T14:29:52.400Z,1.67
2018-12-06T14:32:20.885Z,1.87
2018-12-06T14:34:49.264Z,1.97
2018-12-06T14:37:17.612Z,2.67
2018-12-06T14:39:46.024Z,1.70
2018-12-06T14:42:15.521Z,2.00
2018-12-06T14:44:43.940Z,1.50
2018-12-06T14:47:12.435Z,1.70
2018-12-06T14:49:40.777Z,1.77
2018-12-06T14:52:09.167Z,1.73
2018-12-06T14:54:37.552Z,2.17
2018-12-06T14:57:06.051Z,1.80
2018-12-06T14:59:35.383Z,1.70
2018-12-06T15:02:04.076Z,2.00
2018-12-06T15:04:32.436Z,3.07
2018-12-06T15:07:00.767Z,1.90
2018-12-06T15:09:29.165Z,1.63
2018-12-06T15:11:57.534Z,1.70
2018-12-06T15:14:25.954Z,1.50
2018-12-06T15:16:54.641Z,1.77
2018-12-06T15:19:23.073Z,2.53
2018-12-06T15:21:51.438Z,2.50
2018-12-06T15:24:19.856Z,1.97
2018-12-06T15:26:48.254Z,1.80
2018-12-06T15:29:16.616Z,2.03
2018-12-06T15:31:44.943Z,1.60
2018-12-06T15:34:13.500Z,1.93
2018-12-06T15:36:42.567Z,2.53
2018-12-06T15:39:10.908Z,2.80
2018-12-06T15:41:39.439Z,2.87
2018-12-06T15:44:07.787Z,2.03
2018-12-06T15:46:36.147Z,2.43
2018-12-06T15:49:04.538Z,2.63
2018-12-06T15:51:33.014Z,2.13
2018-12-06T15:54:01.368Z,2.40
2018-12-06T15:56:29.802Z,2.10
2018-12-06T15:58:58.130Z,2.30
2018-12-06T16:01:26.460Z,1.67
2018-12-06T16:04:01.905Z,2.20
2018-12-06T16:06:30.268Z,2.17
2018-12-06T16:08:58.639Z,2.00
2018-12-06T16:11:27.151Z,2.43
2018-12-06T16:13:55.510Z,3.03
2018-12-06T16:16:23.856Z,2.37
2018-12-06T16:18:52.380Z,2.30
2018-12-06T16:21:20.856Z,2.17
2018-12-06T16:23:49.234Z,2.00
2018-12-06T16:26:17.607Z,2.03
2018-12-06T16:28:46.009Z,1.97
2018-12-06T16:31:14.356Z,1.80
2018-12-06T16:33:44.079Z,1.70
2018-12-06T16:36:12.432Z,1.50
2018-12-06T16:38:40.777Z,1.47
2018-12-06T16:41:09.412Z,1.20
2018-12-06T16:43:37.757Z,0.80
2018-12-06T16:46:06.101Z,1.23
2018-12-06T16:48:34.589Z,1.60
2018-12-06T16:51:03.050Z,2.13
2018-12-06T16:53:31.566Z,1.43
2018-12-06T16:56:00.065Z,1.20
2018-12-06T16:58:28.830Z,1.10
2018-12-06T17:00:57.620Z,1.40
2018-12-06T17:03:25.973Z,1.50
2018-12-06T17:05:54.375Z,1.40
2018-12-06T17:08:23.135Z,1.47
2018-12-06T17:10:51.582Z,2.23
2018-12-06T17:13:20.017Z,2.83
2018-12-06T17:15:48.434Z,2.03
2018-12-06T17:18:16.759Z,1.90
2018-12-06T17:20:45.131Z,2.10
2018-12-06T17:23:13.461Z,1.60
2018-12-06T17:25:41.915Z,1.73
2018-12-06T17:28:10.297Z,1.73
2018-12-06T17:30:38.769Z,1.97
2018-12-06T17:33:07.116Z,1.73
2018-12-06T17:35:35.825Z,2.30
2018-12-06T17:38:04.343Z,2.10
2018-12-06T17:40:33.811Z,2.00
2018-12-06T17:43:02.185Z,1.70
2018-12-06T17:45:30.550Z,1.77
2018-12-06T17:47:59.184Z,1.80
2018-12-06T17:50:27.942Z,1.60
2018-12-06T17:52:56.720Z,1.80
2018-12-06T17:55:25.516Z,1.67
2018-12-06T17:57:53.880Z,1.57
2018-12-06T18:00:22.776Z,1.60
2018-12-06T18:02:51.268Z,1.50
2018-12-06T18:05:19.616Z,1.70
2018-12-06T18:07:47.967Z,1.70
2018-12-06T18:10:16.660Z,1.73
2018-12-06T18:12:45.104Z,1.40
2018-12-06T18:15:13.480Z,2.17
2018-12-06T18:17:42.122Z,1.93
2018-12-06T18:20:10.519Z,1.97
2018-12-06T18:22:38.869Z,1.87
2018-12-06T18:25:07.373Z,2.03
2018-12-06T18:27:35.725Z,1.90
2018-12-06T18:30:04.825Z,2.00
2018-12-06T18:32:33.276Z,1.97
2018-12-06T18:35:03.101Z,1.90
2018-12-06T18:37:31.518Z,1.67
2018-12-06T18:39:59.932Z,2.27
2018-12-06T18:42:28.365Z,1.97
2018-12-06T18:44:56.723Z,1.70
2018-12-06T18:47:25.219Z,2.17
2018-12-06T18:49:53.882Z,2.20
2018-12-06T18:52:22.663Z,2.10
2018-12-06T18:54:51.417Z,1.83
2018-12-06T18:57:20.076Z,1.73
2018-12-06T18:59:48.954Z,1.80
2018-12-06T19:02:17.368Z,2.00
2018-12-06T19:04:46.063Z,1.80
2018-12-06T19:07:14.466Z,2.10
2018-12-06T19:09:43.179Z,2.03
2018-12-06T19:12:11.921Z,2.30
2018-12-06T19:14:40.330Z,1.60
2018-12-06T19:17:08.952Z,2.10
2018-12-06T19:19:37.758Z,1.77
2018-12-06T19:22:06.204Z,1.60
2018-12-06T19:24:34.863Z,1.87
2018-12-06T19:27:03.300Z,1.20
2018-12-06T19:29:31.784Z,1.77
2018-12-06T19:32:00.155Z,1.70
2018-12-06T19:34:28.549Z,1.60
2018-12-06T19:36:57.151Z,1.80
2018-12-06T19:39:25.698Z,1.93
2018-12-06T19:41:54.165Z,1.17
2018-12-06T19:44:22.926Z,1.90
2018-12-06T19:46:51.612Z,1.07
2018-12-06T19:49:20.717Z,1.60
2018-12-06T19:51:49.096Z,2.03
2018-12-06T19:54:17.593Z,1.30
2018-12-06T19:57:12.675Z,1.27
2018-12-06T19:59:41.454Z,1.23
2018-12-06T20:02:09.839Z,1.50
2018-12-06T20:04:38.345Z,1.80
2018-12-06T20:07:07.201Z,1.67
2018-12-06T20:09:35.624Z,1.50
2018-12-06T20:12:05.092Z,1.70
2018-12-06T20:14:33.769Z,1.13
2018-12-06T20:17:02.147Z,1.40
2018-12-06T20:19:31.751Z,1.30
2018-12-06T20:22:00.632Z,1.40
2018-12-06T20:24:29.529Z,1.83
2018-12-06T20:26:58.323Z,1.37
2018-12-06T20:29:27.104Z,1.50
2018-12-06T20:31:55.555Z,1.80
2018-12-06T20:34:23.945Z,1.80
2018-12-06T20:36:52.336Z,1.80
2018-12-06T20:39:20.704Z,1.67
2018-12-06T20:41:49.260Z,1.80
2018-12-06T20:44:18.216Z,1.00
2018-12-06T20:46:46.648Z,1.33
2018-12-06T20:49:15.253Z,1.30
2018-12-06T20:51:44.000Z,1.60
2018-12-06T20:54:12.362Z,1.60
2018-12-06T20:56:40.706Z,1.53
2018-12-06T20:59:09.096Z,1.50
2018-12-06T21:01:37.441Z,2.17
2018-12-06T21:04:05.857Z,1.80
2018-12-06T21:06:34.428Z,1.40
2018-12-06T21:09:03.252Z,1.23
2018-12-06T21:11:31.636Z,1.73
2018-12-06T21:14:00.190Z,1.77
2018-12-06T21:16:28.564Z,1.67
2018-12-06T21:18:56.936Z,1.40
2018-12-06T21:21:25.317Z,1.30
2018-12-06T21:23:53.815Z,1.80
2018-12-06T21:26:22.369Z,1.40
2018-12-06T21:28:50.748Z,1.40
2018-12-06T21:31:19.272Z,1.50
2018-12-06T21:33:47.669Z,1.40
2018-12-06T21:36:16.041Z,1.33
2018-12-06T21:38:44.432Z,1.77
2018-12-06T21:41:12.968Z,1.40
2018-12-06T21:43:41.360Z,1.90
2018-12-06T21:46:09.748Z,1.70
2018-12-06T21:48:38.184Z,1.73
2018-12-06T21:51:06.511Z,0.97
2018-12-06T21:53:34.873Z,1.50
2018-12-06T21:56:03.316Z,1.97
2018-12-06T21:58:31.656Z,1.60
2018-12-06T22:01:00.034Z,2.00
2018-12-06T22:03:28.465Z,1.20
2018-12-06T22:05:56.824Z,1.40
2018-12-06T22:08:25.149Z,1.63
2018-12-06T22:10:53.640Z,1.40
2018-12-06T22:13:22.088Z,1.70
2018-12-06T22:15:50.468Z,1.53
2018-12-06T22:18:18.812Z,1.77
2018-12-06T22:20:47.207Z,1.47
2018-12-06T22:23:15.556Z,1.90
2018-12-06T22:25:44.066Z,1.60
2018-12-06T22:28:12.399Z,1.73
2018-12-06T22:30:41.372Z,1.30
2018-12-06T22:33:09.809Z,1.27
2018-12-06T22:35:38.147Z,1.00
2018-12-06T22:38:06.539Z,1.50
2018-12-06T22:40:34.864Z,1.67
2018-12-06T22:43:03.401Z,1.50
2018-12-06T22:46:02.670Z,1.30
2018-12-06T22:48:31.089Z,1.40
2018-12-06T22:50:59.597Z,1.70
2018-12-06T22:53:28.023Z,1.80
2018-12-06T22:55:56.344Z,1.40
2018-12-06T22:58:24.856Z,1.43
2018-12-06T23:00:54.564Z,0.97
2018-12-06T23:03:23.156Z,1.30
2018-12-06T23:05:52.815Z,1.30
2018-12-06T23:08:21.262Z,1.27
2018-12-06T23:10:49.665Z,1.07
2018-12-06T23:13:18.012Z,1.03
2018-12-06T23:15:46.360Z,1.37
2018-12-06T23:18:14.771Z,1.00
2018-12-06T23:20:43.117Z,1.37
2018-12-06T23:23:11.470Z,1.10
2018-12-06T23:25:39.894Z,0.93
2018-12-06T23:28:08.448Z,0.90
2018-12-06T23:30:36.780Z,1.07
2018-12-06T23:33:05.282Z,1.40
2018-12-06T23:35:33.644Z,1.33
2018-12-06T23:38:01.996Z,1.10
2018-12-06T23:40:30.480Z,1.10
2018-12-06T23:42:58.849Z,1.20
2018-12-06T23:45:27.172Z,1.20
2018-12-06T23:47:55.736Z,0.80
2018-12-06T23:50:24.068Z,1.33
2018-12-06T23:52:52.427Z,0.90
2018-12-06T23:55:21.914Z,1.20
2018-12-06T23:57:50.288Z,1.17
